This is the latest recevied weather packets stored in our database for station/object OE-11361. If no packets are shown the sender has not sent any weather packets the latest 10 day(s).
| Time | Temp. | Humidity | Pressure | Rain* | Wind** | Luminosity | Snow |
|---|---|---|---|---|---|---|---|
| 1787744476 | 22.22° C | 72% | 1016.5 hPa | 0 mm | - | 152 W/m² | - |
| 1787744104 | 23.33° C | 67% | 1016.4 hPa | 0 mm | - | 193 W/m² | - |
| 1787743504 | 23.33° C | 62% | 1016.3 hPa | 0 mm | - | 296 W/m² | - |
| 1787742677 | 23.33° C | 61% | 1016.3 hPa | 0 mm | - | 558 W/m² | - |
| 1787742304 | 23.33° C | 60% | 1016.5 hPa | 0 mm | - | 441 W/m² | - |
| 1787741703 | 22.78° C | 60% | 1016.5 hPa | 0 mm | - | 758 W/m² | - |
| 1787740877 | 22.78° C | 64% | 1016.6 hPa | 0 mm | - | 606 W/m² | - |
| 1787740504 | 22.78° C | 67% | 1016.7 hPa | 0 mm | - | 779 W/m² | - |
| 1787739904 | 22.22° C | 67% | 1017 hPa | 0 mm | - | 675 W/m² | - |
| 1787739077 | 21.11° C | 68% | 1017.3 hPa | 0 mm | - | 627 W/m² | - |
| 1787738704 | 21.11° C | 69% | 1017.4 hPa | 0 mm | - | 751 W/m² | - |
| 1787738104 | 21.11° C | 71% | 1017.4 hPa | 0 mm | - | 731 W/m² | - |
| 1787737277 | 20.56° C | 71% | 1017.6 hPa | 0 mm | - | 717 W/m² | - |
| 1787736903 | 19.44° C | 79% | 1017.9 hPa | 0 mm | - | 365 W/m² | - |
| 1787736304 | 19.44° C | 76% | 1017.9 hPa | 0 mm | - | 207 W/m² | - |
| 1787735477 | 19.44° C | 74% | 1018 hPa | 0 mm | - | 248 W/m² | - |
| 1787735104 | 19.44° C | 78% | 1018 hPa | 0 mm | - | 207 W/m² | - |
| 1787733677 | 18.89° C | 79% | 1017.8 hPa | 0 mm | - | 186 W/m² | - |
| 1787733304 | 18.89° C | 82% | 1017.8 hPa | 0 mm | - | 234 W/m² | - |
| 1787732703 | 18.89° C | 78% | 1017.9 hPa | 0 mm | - | 269 W/m² | - |
| 1787731877 | 19.44° C | 80% | 1017.6 hPa | 0 mm | - | 524 W/m² | - |
| 1787731504 | 18.89° C | 81% | 1017.6 hPa | 0 mm | - | 379 W/m² | - |
| 1787730904 | 18.33° C | 86% | 1017.7 hPa | 0 mm | - | 200 W/m² | - |
| 1787730077 | 18.33° C | 85% | 1017.4 hPa | 0 mm | - | 317 W/m² | - |
| 1787729704 | 17.78° C | 91% | 1017.6 hPa | 0 mm | - | 165 W/m² | - |
* Rain latest hour (hover to see other rain measurements)
** Current wind speed in m/s (hover to see current wind gust speed)